createdAt,value
2023-03-22T00:00:46.967Z,45.75
2023-03-22T00:03:13.725Z,41.35
2023-03-22T00:05:40.659Z,39.47
2023-03-22T00:08:08.327Z,40.60
2023-03-22T00:10:37.571Z,42.83
2023-03-22T00:13:09.559Z,44.30
2023-03-22T01:38:50.573Z,43.42
2023-03-22T01:41:17.713Z,39.95
2023-03-22T01:43:44.666Z,42.00
2023-03-22T01:46:11.548Z,42.88
2023-03-22T01:48:48.570Z,40.35
2023-03-22T01:51:22.596Z,41.47
2023-03-22T01:53:52.788Z,43.13
2023-03-22T01:56:22.057Z,45.20
2023-03-22T01:58:50.222Z,42.83
2023-03-22T02:01:17.389Z,45.28
2023-03-22T02:03:55.854Z,42.00
2023-03-22T02:06:23.717Z,43.17
2023-03-22T02:08:53.011Z,44.35
2023-03-22T02:11:30.598Z,44.10
2023-03-22T02:14:00.408Z,42.53
2023-03-22T02:16:50.197Z,40.13
2023-03-22T02:19:29.283Z,42.75
2023-03-22T02:22:21.821Z,44.63
2023-03-22T02:24:55.584Z,40.60
2023-03-22T02:27:51.048Z,40.30
2023-03-22T02:30:39.012Z,40.40
2023-03-22T02:33:23.845Z,40.95
2023-03-22T02:35:56.901Z,39.05
2023-03-22T02:41:32.186Z,38.97
2023-03-22T02:44:17.526Z,39.88
2023-03-22T02:46:56.699Z,42.50
2023-03-22T02:49:36.294Z,40.03
2023-03-22T02:52:25.878Z,37.83
2023-03-22T02:55:12.026Z,38.72
2023-03-22T02:57:48.290Z,37.30
2023-03-22T03:00:17.862Z,40.15
2023-03-22T03:02:49.588Z,39.05
2023-03-22T03:05:18.368Z,39.08
2023-03-22T03:07:51.057Z,39.58
2023-03-22T03:10:19.231Z,36.00
2023-03-22T03:12:46.204Z,39.50
2023-03-22T03:15:16.435Z,43.30
2023-03-22T03:17:49.067Z,41.28
2023-03-22T03:20:30.116Z,42.35
2023-03-22T03:23:19.865Z,37.80
2023-03-22T03:26:16.672Z,47.92
2023-03-22T03:29:05.722Z,43.40
2023-03-22T03:31:33.653Z,41.88
2023-03-22T03:36:53.419Z,41.72
2023-03-22T03:39:22.126Z,43.88
2023-03-22T03:41:51.304Z,43.50
2023-03-22T03:44:19.315Z,46.55
2023-03-22T03:46:48.724Z,47.47
2023-03-22T03:49:17.332Z,43.80
2023-03-22T03:51:54.641Z,45.22
2023-03-22T03:54:22.446Z,44.45
2023-03-22T03:56:49.686Z,45.40
2023-03-22T03:59:17.896Z,45.88
2023-03-22T04:01:52.553Z,43.88
2023-03-22T04:04:26.676Z,45.85
2023-03-22T04:07:01.732Z,42.60
2023-03-22T04:09:31.243Z,44.15
2023-03-22T04:11:58.121Z,45.15
2023-03-22T04:14:26.214Z,49.35
2023-03-22T04:16:53.422Z,43.28
2023-03-22T04:19:20.585Z,43.33
2023-03-22T04:21:47.575Z,45.55
2023-03-22T04:24:15.448Z,43.10
2023-03-22T04:26:42.171Z,43.80
2023-03-22T04:29:09.393Z,44.10
2023-03-22T04:31:36.886Z,44.28
2023-03-22T04:34:05.890Z,44.28
2023-03-22T04:36:39.388Z,44.75
2023-03-22T04:39:11.460Z,43.38
2023-03-22T04:41:38.264Z,46.22
2023-03-22T04:46:34.371Z,44.92
2023-03-22T04:49:01.254Z,44.78
2023-03-22T04:51:28.146Z,42.70
2023-03-22T04:53:55.060Z,44.85
2023-03-22T04:56:22.586Z,48.80
2023-03-22T04:58:49.506Z,42.05
2023-03-22T05:01:18.075Z,43.65
2023-03-22T05:03:47.389Z,41.85
2023-03-22T05:06:15.511Z,46.38
2023-03-22T05:08:42.687Z,44.60
2023-03-22T05:11:14.653Z,41.88
2023-03-22T05:13:41.535Z,45.45
2023-03-22T05:16:10.131Z,43.42
2023-03-22T05:18:42.395Z,49.22
2023-03-22T05:21:17.933Z,47.28
2023-03-22T05:23:45.813Z,46.35
2023-03-22T05:26:15.630Z,45.03
2023-03-22T05:28:43.906Z,46.22
2023-03-22T05:31:11.803Z,44.65
2023-03-22T05:33:39.274Z,47.45
2023-03-22T05:36:06.399Z,47.17
2023-03-22T05:38:33.272Z,44.45
2023-03-22T05:41:00.408Z,45.08
2023-03-22T05:43:27.137Z,45.60
2023-03-22T05:48:20.842Z,57.65
2023-03-22T05:50:47.879Z,49.60
2023-03-22T05:53:14.685Z,49.85
2023-03-22T05:58:08.441Z,50.38
2023-03-22T06:00:35.765Z,47.38
2023-03-22T06:03:03.888Z,52.95
2023-03-22T06:05:31.847Z,49.85
2023-03-22T06:07:59.454Z,51.45
2023-03-22T06:10:26.935Z,50.38
2023-03-22T06:12:54.091Z,54.78
2023-03-22T06:15:20.994Z,51.50
2023-03-22T06:17:48.153Z,51.42
2023-03-22T06:20:15.541Z,57.83
2023-03-22T06:22:42.769Z,55.97
2023-03-22T06:25:10.945Z,51.65
2023-03-22T06:27:38.026Z,53.40
2023-03-22T06:30:06.008Z,51.20
2023-03-22T06:32:32.814Z,49.75
2023-03-22T06:37:26.504Z,49.40
2023-03-22T06:39:53.378Z,56.45
2023-03-22T06:42:20.276Z,52.65
2023-03-22T06:44:47.129Z,48.53
2023-03-22T06:47:13.960Z,50.65
2023-03-22T06:49:40.917Z,51.80
2023-03-22T06:52:07.751Z,56.78
2023-03-22T06:57:01.305Z,52.72
2023-03-22T06:59:28.371Z,53.28
2023-03-22T07:01:55.327Z,52.70
2023-03-22T07:04:22.279Z,51.05
2023-03-22T07:06:49.078Z,58.30
2023-03-22T07:11:42.790Z,48.58
2023-03-22T07:14:09.808Z,49.78
2023-03-22T07:16:36.656Z,54.67
2023-03-22T07:19:03.536Z,52.40
2023-03-22T07:21:30.448Z,51.40
2023-03-22T07:23:58.175Z,60.80
2023-03-22T07:26:26.361Z,52.83
2023-03-22T07:28:53.827Z,64.82
2023-03-22T07:31:21.409Z,51.88
2023-03-22T07:33:48.436Z,51.97
2023-03-22T07:36:15.630Z,47.33
2023-03-22T07:38:42.505Z,53.05
2023-03-22T07:41:09.272Z,54.08
2023-03-22T07:43:50.886Z,57.72
2023-03-22T07:46:20.158Z,56.97
2023-03-22T07:48:46.955Z,50.08
2023-03-22T07:51:13.705Z,53.72
2023-03-22T07:53:40.554Z,57.33
2023-03-22T07:56:07.821Z,57.72
2023-03-22T07:58:35.185Z,49.40
2023-03-22T08:01:09.959Z,55.58
2023-03-22T08:03:37.688Z,49.40
2023-03-22T08:06:08.102Z,50.83
2023-03-22T08:08:36.922Z,53.65
2023-03-22T08:11:06.738Z,49.22
2023-03-22T08:13:34.154Z,52.17
2023-03-22T08:16:01.968Z,54.05
2023-03-22T08:18:28.823Z,48.38
2023-03-22T08:20:58.087Z,51.13
2023-03-22T08:23:38.540Z,47.58
2023-03-22T08:26:07.850Z,45.38
2023-03-22T08:28:34.662Z,46.17
2023-03-22T08:31:01.572Z,49.28
2023-03-22T08:33:28.675Z,47.63
2023-03-22T08:36:09.167Z,44.08
2023-03-22T08:38:36.144Z,46.85
2023-03-22T08:41:05.996Z,48.03
2023-03-22T08:43:32.691Z,50.72
2023-03-22T08:45:59.804Z,50.25
2023-03-22T08:48:29.133Z,50.30
2023-03-22T08:50:56.169Z,53.17
2023-03-22T08:53:23.465Z,49.42
2023-03-22T08:55:50.986Z,46.03
2023-03-22T08:58:19.965Z,46.50
2023-03-22T09:00:49.704Z,43.60
2023-03-22T09:03:17.156Z,41.22
2023-03-22T09:05:44.304Z,42.92
2023-03-22T09:08:19.092Z,43.35
2023-03-22T09:10:51.369Z,43.92
2023-03-22T09:13:18.769Z,43.95
2023-03-22T09:15:45.749Z,49.35
2023-03-22T09:18:13.291Z,45.88
2023-03-22T09:20:40.503Z,47.20
2023-03-22T09:23:07.427Z,44.53
2023-03-22T09:25:34.297Z,48.50
2023-03-22T09:28:01.671Z,42.60
2023-03-22T09:30:28.615Z,40.35
2023-03-22T09:32:55.791Z,41.67
2023-03-22T09:35:23.016Z,40.13
2023-03-22T09:37:53.186Z,39.95
2023-03-22T09:40:20.899Z,40.67
2023-03-22T09:42:52.176Z,43.92
2023-03-22T09:45:25.132Z,42.42
2023-03-22T09:47:54.943Z,38.92
2023-03-22T09:50:24.969Z,46.13
2023-03-22T09:52:52.718Z,40.55
2023-03-22T09:55:33.038Z,43.03
2023-03-22T09:58:11.915Z,38.92
2023-03-22T10:00:44.960Z,41.53
2023-03-22T10:03:26.339Z,38.67
2023-03-22T10:05:58.995Z,42.30
2023-03-22T10:08:32.487Z,40.10
2023-03-22T10:11:00.340Z,39.00
2023-03-22T10:13:33.259Z,43.72
2023-03-22T10:16:03.228Z,41.08
2023-03-22T10:18:41.635Z,40.20
2023-03-22T10:21:10.839Z,41.88
2023-03-22T10:23:46.680Z,41.53
2023-03-22T10:26:24.551Z,41.65
2023-03-22T10:29:04.035Z,41.15
2023-03-22T10:31:33.706Z,40.03
2023-03-22T10:34:31.168Z,39.20
2023-03-22T10:37:01.179Z,40.70
2023-03-22T10:39:31.051Z,39.88
2023-03-22T10:42:01.545Z,38.55
2023-03-22T10:44:31.769Z,40.00
2023-03-22T10:47:07.163Z,39.10
2023-03-22T10:49:48.360Z,34.45
2023-03-22T10:52:31.154Z,36.92
2023-03-22T10:55:02.364Z,40.63
2023-03-22T10:57:30.617Z,38.67
2023-03-22T10:59:57.954Z,37.63
2023-03-22T11:02:27.657Z,38.40
2023-03-22T11:04:57.078Z,40.38
2023-03-22T11:07:44.872Z,39.78
2023-03-22T11:10:18.939Z,39.53
2023-03-22T11:12:52.327Z,37.15
2023-03-22T11:15:31.799Z,37.70
2023-03-22T11:18:16.413Z,39.15
2023-03-22T11:20:55.432Z,39.40
2023-03-22T11:23:24.169Z,38.95
2023-03-22T11:25:55.786Z,39.33
2023-03-22T11:28:29.047Z,38.55
2023-03-22T11:31:11.440Z,34.65
2023-03-22T11:33:53.407Z,42.10
2023-03-22T11:36:20.539Z,39.90
2023-03-22T11:38:48.833Z,39.83
2023-03-22T11:41:35.100Z,36.10
2023-03-22T11:44:05.652Z,34.13
2023-03-22T11:46:34.565Z,40.10
2023-03-22T11:49:08.106Z,38.17
2023-03-22T11:51:38.501Z,35.95
2023-03-22T11:54:25.452Z,35.97
2023-03-22T11:56:58.136Z,36.95
2023-03-22T11:59:27.802Z,41.20
2023-03-22T12:02:18.998Z,38.47
2023-03-22T12:04:49.093Z,36.20
2023-03-22T12:07:21.587Z,37.72
2023-03-22T12:10:07.908Z,37.42
2023-03-22T12:12:52.543Z,38.78
2023-03-22T12:15:27.671Z,43.70
2023-03-22T12:17:59.624Z,40.40
2023-03-22T12:20:50.959Z,35.53
2023-03-22T12:23:20.937Z,34.78
2023-03-22T12:25:51.957Z,41.97
2023-03-22T12:28:23.081Z,37.22
2023-03-22T12:30:53.959Z,39.58
2023-03-22T12:33:26.647Z,33.67
2023-03-22T12:35:58.839Z,36.22
2023-03-22T12:38:36.853Z,34.33
2023-03-22T12:41:09.262Z,33.88
2023-03-22T12:43:48.241Z,35.65
2023-03-22T12:46:24.004Z,36.95
2023-03-22T12:49:02.790Z,34.03
2023-03-22T12:51:29.685Z,34.08
2023-03-22T12:53:59.600Z,37.22
2023-03-22T12:56:38.498Z,36.67
2023-03-22T12:59:12.311Z,34.63
2023-03-22T13:01:57.526Z,35.67
2023-03-22T13:04:36.683Z,34.35
2023-03-22T13:07:18.457Z,42.40
2023-03-22T13:09:51.594Z,32.83
2023-03-22T13:12:18.435Z,34.42
2023-03-22T13:14:56.221Z,29.05
2023-03-22T13:17:23.042Z,31.88
2023-03-22T13:20:11.429Z,34.97
2023-03-22T13:22:38.258Z,34.08
2023-03-22T13:25:12.809Z,33.15
2023-03-22T13:27:45.614Z,39.85
2023-03-22T13:30:24.314Z,32.47
2023-03-22T13:32:56.526Z,32.67
2023-03-22T13:35:51.055Z,29.73
2023-03-22T13:38:22.991Z,38.47
2023-03-22T13:40:52.399Z,29.73
2023-03-22T13:43:28.395Z,31.98
2023-03-22T13:46:10.493Z,32.10
2023-03-22T13:48:50.706Z,31.52
2023-03-22T13:51:30.427Z,34.30
2023-03-22T13:54:20.633Z,33.72
2023-03-22T13:56:54.218Z,28.42
2023-03-22T13:59:33.949Z,32.40
2023-03-22T14:02:23.948Z,30.17
2023-03-22T14:05:22.641Z,29.35
2023-03-22T14:08:00.181Z,27.58
2023-03-22T14:10:43.387Z,29.60
2023-03-22T14:13:29.081Z,31.33
2023-03-22T14:18:32.708Z,29.77
2023-03-22T14:21:07.582Z,28.67
